MMTO/TLC METAR and TAF weather

Enter ICAO airport designator
Station Type Date Time Source
MMTO METAR 2020/01/27 16:48 UTC NOAA

MMTO 271648Z 00000KT 8SM SKC 16/M01 A3040 RMK FU


Station Type Date Time Source
MMTO Decoded METAR 2020/01/27 16:48 UTC NOAA

Toluca / Jose Maria , Mexico (MMTO) 19-21N 099-34W
Jan 27, 2020 - 11:48 AM EST / 2020.01.27 1648 UTC
Wind: Calm:0
Visibility: 8 mile(s):0
Sky conditions: clear
Temperature: 60 F (16 C)
Dew Point: 30 F (-1 C)
Relative Humidity: 31%
Pressure (altimeter): 30.4 in. Hg (1029 hPa)
ob: MMTO 271648Z 00000KT 8SM SKC 16/M01 A3040 RMK FU
cycle: 17

Station Type Date Time Source
MMTO TAF 2020/01/27 18:28 UTC NOAA

TAF MMTO 271623Z 2718/2824 22012KT P6SM SKC TX20/2720Z TN01/2812Z
BECMG 2801/2802 00000KT
FM281200 00000KT 3SM HZ SCT010
FM281700 23012KT 5SM HZ SKC

Example: see airport list